Timeline UpdatesTrip UpdatesNews PostsPvt PostsTravel TipsAdmin PostsConv PostsFollowed PostsChat RequestsBlog PostsPNR Posts

Disclaimer
Search
 
 
Fri Aug 22, 2014 07:29:47 ISTHomeTrainsΣChainsAtlasPNRForumGalleryNewsFAQTripsMembersLoginFeedback
No Recent News for this Train
Other Trains in the News **new
Latest...
.
Fri Jan 17, 2014 (09:13PM)
⇐ Return Journey: Train# 13049

13050/Amritsar-Howrah Express

Oct 13 2013 (9:50PM)
Change Departure Station:
Change Arrival Station:
Post a Train Travel TipPost a Train Travel Tip **new
Post a Comment/Question/Picture/VideoPost a Comment/Question/Picture/Video
Pantry/Catering
✕ NO Pantry Car
✕ NO Catering
RSA - Rake Sharing
no RSA
Rake/Coach Composition
LOCO-HCPV-SLR-GEN-B1-S1-S2-S3-S4-GEN-GEN-GEN-GEN-GEN-GEN-MILITARY-SLR
Loco
WAM-4/ WAG-5 [HWH-MGS] LDH WDM2/3A/3D [MGS-MB] GZB WAP-5 [...
Read more...
MB-ASR].
News    PNR    Forum    Time-Table    Availability    Fare Chart    Map    Arr/Dep History    Trips    Gallery    ΣChains    X/O    Timeline    
Travel Time: 1h 53m    6 halts    Distance: 77 km    Avg Speed: 40 km/hr
Type: Mail/Express
Zone: ER/Eastern
Departs @ 10:28 (Avg 1h 27m late)
Platform# ???
SMTWTFS
Sitarampur Junction/STN 
Arrives @ 12:21 (Avg 1h 31m late)
Platform# ???
SMTWTFS
Mankar/MNAE 

6 halts. 16 intermediate Stations between Sitarampur Junction and Mankar

Show ALL intermediate Stations  Show Old Time-Table

#CodeStation NameX/OArrivesAvgDepartsAvgHaltPFDay#KmSpeedElevZoneAddress
1ASRAmritsar Junction (5)  -18:10+3551-1705.292233mNRAmritsar 143002, Punjab
2BEASBeas Junction (2)X  18:38+4718:40+472m21-1662.261238mNRBeas, Punjab
3KREKartarpur (2)X  19:01+4619:03+452m11-1640.773236mNRKartarpur, Punjab
4JUCJalandhar City Junction (5)X  19:15+4819:23+508m21-1626.122239mNRJalandhar 144001, Punjab
5JRCJalandhar Cantt. Junction (3)X  19:36+4519:38+462m21-1621.265239mNRNear Rama Mandi, Punjab
6PGWPhagwara Junction (3)X  19:53+4419:55+442m11-1604.975245mNRPhagwara, Punjab
7PHRPhillaur Junction (3)  20:13+4620:15+472m11-1582.452246mNRPhillaur, Punjab
8LDHLudhiana Junction (7)XO  20:30+4920:40+5210m11-1569.351246mNRLudhiana 141001, Punjab
9KNNKhanna (3)X  21:30+3821:32+402m11-1526.561269mNRNH 1, Punjab
10GVGMandi Gobindgarh (2)X  21:40+4121:42+412m11-1518.353268mNRMandi Gobindgarh, Punjab
11SIRSirhind Junction (3)X  21:53+4021:55+402m11-1508.683271mNRSirhind, Punjab
12RPJRajpura Junction (3)X  22:13+4222:14+441m21-1483.756272mNRNH-1, Punjab
13UBCAmbala City (3)  22:36+4522:37+461m11-1463.220273mNRNH-1, Haryana
14UMBAmbala Cantt. Junction (7)X  23:00+3623:10+3910m11-1455.781278mNRAmbala 133001, Haryana
15JUDWJagadhri Workshop (2)  23:44+4123:45+431m11-1409.650280mNRRailway Workshop Road, Haryana
16JUDYamunanagar-Jagadhri (3)X  23:51+4323:53+442m21-1404.643275mNRYamunanagar, Haryana
17SRESaharanpur Junction (6)X  00:35+3700:55+3720m32-1374.574276mNRSaharanpur, Uttar Pradesh
18RKRoorkee (3)  01:23+5601:28+555m12-1339.844264mNRRoorkee - 247667, Uttarakhand
19LRJLaksar Junction (4)X  01:52+5201:57+515m12-1322.076238mNRLaksar, Uttarakhand
20NBDNajibabad Junction (3)X  02:30+5502:35+555m12-1280.162269mNRNajibabad, Uttar Pradesh
21MBMoradabad Junction (7)X  04:10+1:0304:20+1:0910m32-1181.251201mNRMoradabad, Uttar Pradesh
22RJKRaja Ka SahaspurX  04:48+1:1304:50+1:152m--2-1157.340196mNRBilari, Uttar Pradesh
23CHChandausi Junction (3)  05:20+1:0705:25+1:075m--2-1137.459193mNRChandausi, Uttar Pradesh
24AOAonla (2)06:08+1:0706:10+1:082m--2-1095.339176mNRDist. Bareilly, Uttar Pradesh
25PMRPitambarpur  07:22+1:0807:24+1:092m--2-1048.475171mNRPitambarpur, Uttar Pradesh
26TLHTilhar  07:50+1:1407:52+1:172m--2-1016.027163mNRTilhar, Uttar Pradesh
27SPNShahjahanpur Junction (3)X  08:32+5808:37+585m--2-997.860156mNRShahjahanpur, Uttar Pradesh
28AJIAnjhi Shahabad  09:08+5809:10+1:002m--2-967.077148mNRAnjhi Shahabad, Uttar Pradesh
29HRIHardoi (5)X  09:35+1:0009:40+1:015m32-934.864146mNRHardoi, Uttar Pradesh
30BLMBalamu Junction (4)  10:11+5810:13+582m--2-901.868139mNRBalamau, Uttar Pradesh
31SANSandila (3)  10:31+1:0210:33+1:032m--2-881.555132mNRSandila, Uttar Pradesh
32AMGAlamnagar (3)  11:18+1:0611:20+1:072m22-840.017126mNRLucknow, Uttar Pradesh
33LKOLucknow Charbagh (9)  11:45+5912:10+5525m22-833.059123mNR226004, Uttar Pradesh
34HGHHaidergarh (2)X  13:08+1:0413:09+1:081m12-776.244116mNRState Highway 13, Uttar Pradesh
35AKJAkbarGanj (1)  13:32+1:0513:33+1:091m12-759.376112mNRSH 31, Uttar Pradesh
36NHHNihalgarh (3)  13:45+1:1813:47+1:262m12-744.071108mNRJagdishpur, Uttar Pradesh
37MFKAMusafir Khana (3)  14:03+1:3414:04+1:351m12-725.149105mNRMusfirKhana, Uttar Pradesh
38SLNSultanpur Junction (3)X  14:43+1:4314:48+1:495m22-693.67399mNRSultanpur., Uttar Pradesh
39LBALambhua (1)  15:06+1:5715:08+1:592m12-671.75797mNRLambhua, Uttar Pradesh
40KEPRKoiripur (1)  15:26+2:0215:27+2:031m12-654.58096mNRNational Highway 56, Uttar Pradesh
41HRPGHarpalGanj (1)  15:35+2:0915:37+2:112m12-643.84490mNRNational Highway 56, Uttar Pradesh
42SKNSri Krishna Nagar (2)X  15:48+2:1215:49+2:131m12-635.85892mNRBadlapur, Uttar Pradesh
43JOPJaunpur City (3)X  16:18+2:1216:20+2:122m12-607.82187mNRJaunpur, Uttar Pradesh
44ZBDZafarabad Junction (4)X  16:38+2:0616:40+2:062m12-601.52583mNRNational Highway 56, Uttar Pradesh
45KSFKhalispur (2)X  17:37+1:3217:39+1:312m--2-578.22683mNRPhulpur, Uttar Pradesh
46PDRDPindra Road (2)  17:48-17:49-1m--2-574.32581mNRSatomahua-Mangari Rd, Uttar Pradesh
47BTPBabatpur (2)X  18:02+1:2318:03+1:241m--2-568.82784mNRSatomahua-Mangari Rd, Uttar Pradesh
48SOPShivpur (3)  18:32+1:1318:34+1:142m--2-555.91681mNRVaranasi, Uttar Pradesh
49BSBVaranasi Junction (9)X  18:55+1:1819:15+1:2320m62-550.32382mNRVaranasi 221002, Uttar Pradesh
50KEIKashi (3)  19:29+1:1719:31+1:182m--2-545.01385mNRVaranasi, Uttar Pradesh
51MGSMughal Sarai Junction (8)X20:20+1:0320:40+1:0720m12-534.04083mECRMughalsarai 232101, Uttar Pradesh
52KCAKuchman (2)X  20:56+1:1220:58+1:132m--2-523.47679mECRKuchman, Uttar Pradesh
53SLDSakaldiha (2)X  21:04+1:1521:06+1:162m--2-515.87581mECRState Highway 69, Uttar Pradesh
54DHADheena  21:17+1:2021:19+1:242m--2-502.17474mECRDheena, Uttar Pradesh
55ZNAZamania (2)X  21:29+1:2421:31+1:262m--2-489.86277mECRGhazipur, Uttar Pradesh
56DLNDildarnagar Junction (2)XO  21:44+1:3321:46+1:352m--2-476.36772mECRDildarnagar, Uttar Pradesh
57BWHBhadaura (2)X  21:53+1:3621:55+1:372m--2-468.47069mECRGhazipur, Uttar Pradesh
58GMRGahmar (2)  22:02+1:3822:04+1:392m--2-460.24668mECRDistt: Ghazipur, Uttar Pradesh
59CSAChausa (2)X  22:16+1:4022:18+1:412m--2-451.06668mECRState Highway 14, Bihar
60BXRBuxar (3)X  22:28+1:4322:32+1:434m--2-440.18967mECRBuxar, Bihar
61DUREDumraon (3)  22:43+1:4422:45+1:452m--2-423.76570mECRDumraon, Bihar
62TWGTwining GanjX  22:52+1:4622:54+1:492m--2-416.16370mECRArrah Buxar Rd, Bihar
63RPRRaghunathpur (4)XO  23:02+1:4923:04+1:502m--2-407.86669mECRRaghunathpur, Bihar
64BYNBanahi (2)  23:12+1:5123:14+1:522m--2-398.95967mECRBanahi, Bihar
65BEABihiya (3)X  23:20+1:5323:22+1:452m--2-393.04167mECRBehea, Bihar
66ARAAra Junction (3)X  23:53+1:3423:58+1:335m--2-371.68363mECRarrah( 06182-233411), Bihar
67BTABihta (2)X  00:14+1:4300:16+1:452m--3-349.41762mECRDistt: Patna, Bihar
68DNRDanapur (5)X  01:18+1:1301:28+1:2010m--3-332.01258mECRKhagaul, Bihar
69PNBEPatna Junction (10)X  02:15+1:1302:30+1:2015m--3-322.64257mECRPatna 800001, Bihar
70PNCPatna Saheb (3)  02:44+1:2102:46+1:242m--3-312.86159mECRPatna, Bihar
71FUTFatwa (6)X  02:58+1:2403:00+1:272m--3-300.56953mECRPatna, Bihar
72BKPBakhtiyarpur Junction (5)  03:20+1:3903:22+1:422m--3-277.59151mECRPatna, Bihar
73BARHBarh (3)X  03:34+1:5303:36+1:542m--3-259.36549mECRBarh, Bihar
74MKAMokama Junction (4)O  04:00+1:5504:02+1:552m--3-233.46348mECRPatna, Bihar
75HTZHathidah Junction (2)X  04:10+1:5804:12+1:582m13-225.03550mECRMusahari, Bihar
76BRYABarhiya (3)X  04:28+2:0204:30+2:022m--3-215.66547mECRBarahiya, Bihar
77LKRLuckeesarai Junction (2)X  04:44+1:5104:46+1:512m--3-200.5952mECRLakhisarai, Bihar
78KIULKiul Junction (5)X  04:55+1:5705:00+1:555m--3-199.22053mECRDist. Lakhisarai, Bihar
79MNPMananpur (2)X  05:21+1:4805:23+1:492m--3-192.210257mECRState Highway 18, Bihar
80JMUJamui (3)  05:35+1:5105:37+1:522m--3-171.97381mECRState Highway 72, Bihar
81GHRGidhaur (2)X  05:49+1:5405:51+1:552m--3-157.39106mECRState Highway 18, Bihar
82JAJJhajha (4)  07:07+1:1007:17+1:1410m--3-145.975143mECRJhajha, Bihar
83STLSimultala (2)X  07:32+1:1907:34+1:212m--3-127.255247mERSimultala, Bihar
84LHBLahabon (3)  07:45+4:2107:46+4:201m--3-117.065259mERDeoghar, Jharkhand
85JSMEJasidih Junction (5)  08:00+1:3008:05+1:325m--3-101.875271mERJasidih, Jharkhand
86MUWMathurapur (2)  08:19+1:2808:21+1:272m--3-84.354261mERDeoghar, Jharkhand
87MDPMadhupur Junction (4)X  08:34+1:2608:44+1:2310m33-72.781254mER06432-224478, Jharkhand
88VDSVidyasagar (2)X  09:02+1:2609:04+1:272m--3-48.567250mERJamtara, Jharkhand
89JMTJamtara (2)X  09:20+1:2909:22+1:302m23-30.648201mERJamtara, Jharkhand
90CRJChittaranjan (3)X  09:40+1:3909:42+1:432m23-16.355182mERMihijam, Jharkhand
91RNPRRupnarayanpur (3)XO  09:47+1:3109:49+1:302m--3-11.819191mERChittaranjan, West Bengal
92STN»Sitarampur Junction (5)»XO  10:26+1:1710:28+1:272m--30.024139mERG T Rd Before Asansol, West Bengal
93ASNAsansol Junction (7)X  10:50+1:3111:05+1:3015m338.872113mERDist - bardhaman, West Bengal
94RNGRaniGanj (4)X  11:20+1:3711:22+1:372m--326.94092mERRaniganj, West Bengal
95UDLAndal Junction (6)  11:33+1:3011:35+1:302m--334.28286mERAndal, West Bengal
96OYRWaria (4)  11:41+1:2811:43+1:282m--342.45372mERDurgapur, West Bengal
97DGRDurgapur (5)  11:53+1:2911:57+1:284m--351.29471mERDurgapur, West Bengal
98PANPanagarh (4)X  12:07+1:3612:09+1:352m--366.85170mERKaksa, West Bengal
99MNAE•Mankar (4)•  12:21+1:3112:23+1:302m--377.04965mERMankur, West Bengal
100KANKhana Junction (5)X  12:53+1:1312:55+1:162m--3101.76042mERDist - Bardhaman, West Bengal
101BWNBarddhaman Junction (8)X  13:08+1:1113:13+1:135m--3114.76534mERDist - Barddhaman, West Bengal
102BDCBandel Junction (7)  14:15+5714:23+598m--3182.04514mERdist - HOOGHLY, West Bengal
103CNSChuchura (3)  14:28+1:4414:30+1:402m--3185.84515mERDist - HOOGHLY - 712102, West Bengal
104CGRChandan Nagar (3)X  14:34+1:0114:36+1:012m--3188.84316mERDist -HOOGHLY - 712136, West Bengal
105SHESeoraphuli Junction (6)  14:51+1:1814:53+1:182m--3199.43813mERBaidyabati, West Bengal
106SRPSerampore (4)  14:57+4614:59+472m--3201.92611mERdist - hooghly, West Bengal
107HWHKolkata Howrah Junction (23)  15:45+1:11-113221.6-10mERHowrah 711101, West Bengal
Scroll to Top
Scroll to Bottom